This is the latest recevied weather packets stored in our database for station/object K3PPP. If no packets are shown the sender has not sent any weather packets the latest 10 day(s).
| Time | Temp. | Humidity | Pressure | Rain* | Wind** | Luminosity | Snow |
|---|---|---|---|---|---|---|---|
| 1777645582 | 8.33° C | 67% | 1013.1 hPa | 0 mm | - | 508 W/m² | - |
| 1777645278 | 8.33° C | 64% | 1012.9 hPa | 0 mm | - | 364 W/m² | - |
| 1777644974 | 8.33° C | 69% | 1013.1 hPa | 0 mm | - | 479 W/m² | - |
| 1777644672 | 7.78° C | 68% | 1013.2 hPa | 0 mm | - | 423 W/m² | - |
| 1777644367 | 7.78° C | 69% | 1013.1 hPa | 0 mm | - | 394 W/m² | - |
| 1777644064 | 7.78° C | 74% | 1013 hPa | 0 mm | - | 459 W/m² | - |
| 1777643760 | 7.78° C | 76% | 1013 hPa | 0 mm | - | 469 W/m² | - |
| 1777643458 | 7.22° C | 75% | 1012.9 hPa | 0 mm | - | 456 W/m² | - |
| 1777643154 | 7.22° C | 77% | 1013 hPa | 0 mm | - | 432 W/m² | - |
| 1777642845 | 7.22° C | 81% | 1013.1 hPa | 0 mm | - | 421 W/m² | - |
| 1777642543 | 6.67° C | 82% | 1013.5 hPa | 0 mm | - | 322 W/m² | - |
| 1777642238 | 6.67° C | 81% | 1013.3 hPa | 0 mm | - | 220 W/m² | - |
| 1777641936 | 6.67° C | 81% | 1013.2 hPa | 0 mm | - | 244 W/m² | - |
| 1777641632 | 6.67° C | 81% | 1013.5 hPa | 0 mm | - | 256 W/m² | - |
| 1777641327 | 6.67° C | 82% | 1013.2 hPa | 0 mm | - | 315 W/m² | - |
| 1777641022 | 6.67° C | 84% | 1013.6 hPa | 0 mm | - | 331 W/m² | - |
| 1777640719 | 6.67° C | 84% | 1013.2 hPa | 0 mm | - | 241 W/m² | - |
| 1777640416 | 6.11° C | 85% | 1013.3 hPa | 0 mm | - | 315 W/m² | - |
| 1777640113 | 6.11° C | 86% | 1013.3 hPa | 0 mm | - | 349 W/m² | - |
| 1777639809 | 5.56° C | 86% | 1013.2 hPa | 0 mm | - | 330 W/m² | - |
| 1777639507 | 5.56° C | 87% | 1013.2 hPa | 0 mm | - | 322 W/m² | - |
| 1777639203 | 5.56° C | 86% | 1013.2 hPa | 0 mm | - | 313 W/m² | - |
| 1777638900 | 5° C | 88% | 1013.3 hPa | 0 mm | - | 300 W/m² | - |
| 1777638595 | 5° C | 87% | 1013.6 hPa | 0 mm | - | 200 W/m² | - |
| 1777638292 | 5° C | 88% | 1013.7 hPa | 0 mm | - | 147 W/m² | - |
* Rain latest hour (hover to see other rain measurements)
** Current wind speed in m/s (hover to see current wind gust speed)